sensor_id;sensor_type;location;lat;lon;timestamp;temperature;humidity
3701;DHT22;1866;48.374;10.766;2022-11-28T00:01:06;1.30;99.90
3701;DHT22;1866;48.374;10.766;2022-11-28T00:03:33;1.20;26.10
3701;DHT22;1866;48.374;10.766;2022-11-28T00:06:03;1.30;1.00
3701;DHT22;1866;48.374;10.766;2022-11-28T00:08:31;1.10;1.00
3701;DHT22;1866;48.374;10.766;2022-11-28T00:11:00;1.20;1.00
3701;DHT22;1866;48.374;10.766;2022-11-28T00:13:28;1.50;99.90
3701;DHT22;1866;48.374;10.766;2022-11-28T00:15:55;1.60;51.30
3701;DHT22;1866;48.374;10.766;2022-11-28T00:18:24;1.40;1.00
3701;DHT22;1866;48.374;10.766;2022-11-28T00:20:51;1.40;1.00
3701;DHT22;1866;48.374;10.766;2022-11-28T00:23:18;1.40;1.00
3701;DHT22;1866;48.374;10.766;2022-11-28T00:25:45;1.20;1.00
3701;DHT22;1866;48.374;10.766;2022-11-28T00:28:12;1.10;1.00
3701;DHT22;1866;48.374;10.766;2022-11-28T00:30:39;1.20;1.00
3701;DHT22;1866;48.374;10.766;2022-11-28T00:33:06;1.20;1.00
3701;DHT22;1866;48.374;10.766;2022-11-28T00:35:34;1.40;1.00
3701;DHT22;1866;48.374;10.766;2022-11-28T00:38:02;1.30;1.00
3701;DHT22;1866;48.374;10.766;2022-11-28T00:40:30;1.50;1.00
3701;DHT22;1866;48.374;10.766;2022-11-28T00:42:57;1.30;1.00
3701;DHT22;1866;48.374;10.766;2022-11-28T00:45:24;1.20;1.00
3701;DHT22;1866;48.374;10.766;2022-11-28T00:47:51;1.30;1.00
3701;DHT22;1866;48.374;10.766;2022-11-28T00:50:18;1.50;1.00
3701;DHT22;1866;48.374;10.766;2022-11-28T00:52:47;1.40;1.00
3701;DHT22;1866;48.374;10.766;2022-11-28T00:55:15;1.20;1.00
3701;DHT22;1866;48.374;10.766;2022-11-28T00:57:42;1.40;1.00
3701;DHT22;1866;48.374;10.766;2022-11-28T01:00:09;1.20;1.00
3701;DHT22;1866;48.374;10.766;2022-11-28T01:02:41;1.50;1.00
3701;DHT22;1866;48.374;10.766;2022-11-28T01:05:08;1.20;1.00
3701;DHT22;1866;48.374;10.766;2022-11-28T01:07:35;1.30;1.00
3701;DHT22;1866;48.374;10.766;2022-11-28T01:10:10;1.30;1.00
3701;DHT22;1866;48.374;10.766;2022-11-28T01:12:39;1.20;1.00
3701;DHT22;1866;48.374;10.766;2022-11-28T01:15:09;1.20;1.00
3701;DHT22;1866;48.374;10.766;2022-11-28T01:17:36;1.20;1.00
3701;DHT22;1866;48.374;10.766;2022-11-28T01:20:06;1.20;1.00
3701;DHT22;1866;48.374;10.766;2022-11-28T01:22:34;1.20;1.00
3701;DHT22;1866;48.374;10.766;2022-11-28T01:25:01;1.30;1.00
3701;DHT22;1866;48.374;10.766;2022-11-28T01:27:31;1.20;1.00
3701;DHT22;1866;48.374;10.766;2022-11-28T01:29:59;1.50;77.00
3701;DHT22;1866;48.374;10.766;2022-11-28T01:32:27;1.40;19.00
3701;DHT22;1866;48.374;10.766;2022-11-28T01:34:55;1.20;1.00
3701;DHT22;1866;48.374;10.766;2022-11-28T01:37:27;1.20;1.00
3701;DHT22;1866;48.374;10.766;2022-11-28T01:39:54;1.20;1.00
3701;DHT22;1866;48.374;10.766;2022-11-28T01:42:22;1.20;1.00
3701;DHT22;1866;48.374;10.766;2022-11-28T01:45:14;1.40;99.90
3701;DHT22;1866;48.374;10.766;2022-11-28T01:47:43;1.30;99.90
3701;DHT22;1866;48.374;10.766;2022-11-28T01:50:12;1.50;99.90
3701;DHT22;1866;48.374;10.766;2022-11-28T01:52:44;1.30;99.90
3701;DHT22;1866;48.374;10.766;2022-11-28T01:55:16;1.20;44.10
3701;DHT22;1866;48.374;10.766;2022-11-28T01:57:47;1.30;99.90
3701;DHT22;1866;48.374;10.766;2022-11-28T02:00:21;1.10;99.90
3701;DHT22;1866;48.374;10.766;2022-11-28T02:02:50;1.10;99.90
3701;DHT22;1866;48.374;10.766;2022-11-28T02:05:20;1.00;99.90
3701;DHT22;1866;48.374;10.766;2022-11-28T02:07:49;1.40;99.90
3701;DHT22;1866;48.374;10.766;2022-11-28T02:10:19;1.30;99.90
3701;DHT22;1866;48.374;10.766;2022-11-28T02:13:09;1.20;99.90
3701;DHT22;1866;48.374;10.766;2022-11-28T02:15:54;1.40;99.90
3701;DHT22;1866;48.374;10.766;2022-11-28T02:18:37;1.50;99.90
3701;DHT22;1866;48.374;10.766;2022-11-28T02:21:28;1.50;99.90
3701;DHT22;1866;48.374;10.766;2022-11-28T02:24:21;1.40;99.90
3701;DHT22;1866;48.374;10.766;2022-11-28T02:30:11;1.40;99.90
3701;DHT22;1866;48.374;10.766;2022-11-28T02:33:00;1.20;42.90
3701;DHT22;1866;48.374;10.766;2022-11-28T02:35:35;1.20;38.00
3701;DHT22;1866;48.374;10.766;2022-11-28T02:38:12;1.50;99.90
3701;DHT22;1866;48.374;10.766;2022-11-28T02:40:46;1.30;99.90
3701;DHT22;1866;48.374;10.766;2022-11-28T02:43:22;1.30;99.90
3701;DHT22;1866;48.374;10.766;2022-11-28T02:45:57;1.20;90.10
3701;DHT22;1866;48.374;10.766;2022-11-28T02:48:37;1.30;99.90
3701;DHT22;1866;48.374;10.766;2022-11-28T02:51:09;1.30;96.30
3701;DHT22;1866;48.374;10.766;2022-11-28T02:53:38;1.20;43.10
3701;DHT22;1866;48.374;10.766;2022-11-28T02:56:10;1.30;93.40
3701;DHT22;1866;48.374;10.766;2022-11-28T02:58:38;1.20;46.70
3701;DHT22;1866;48.374;10.766;2022-11-28T03:01:14;1.40;99.90
3701;DHT22;1866;48.374;10.766;2022-11-28T03:04:12;1.30;15.10
3701;DHT22;1866;48.374;10.766;2022-11-28T03:06:56;1.20;1.00
3701;DHT22;1866;48.374;10.766;2022-11-28T03:10:00;1.30;1.00
3701;DHT22;1866;48.374;10.766;2022-11-28T03:12:38;1.30;28.80
3701;DHT22;1866;48.374;10.766;2022-11-28T03:15:11;1.50;7.60
3701;DHT22;1866;48.374;10.766;2022-11-28T03:17:47;1.20;1.00
3701;DHT22;1866;48.374;10.766;2022-11-28T03:20:22;1.10;1.00
3701;DHT22;1866;48.374;10.766;2022-11-28T03:23:07;1.20;1.00
3701;DHT22;1866;48.374;10.766;2022-11-28T03:25:48;1.10;1.00
3701;DHT22;1866;48.374;10.766;2022-11-28T03:28:23;1.10;1.00
3701;DHT22;1866;48.374;10.766;2022-11-28T03:30:55;1.10;1.00
3701;DHT22;1866;48.374;10.766;2022-11-28T03:33:29;1.30;1.00
3701;DHT22;1866;48.374;10.766;2022-11-28T03:36:02;1.20;1.00
3701;DHT22;1866;48.374;10.766;2022-11-28T03:38:35;1.30;1.00
3701;DHT22;1866;48.374;10.766;2022-11-28T03:41:07;1.30;1.00
3701;DHT22;1866;48.374;10.766;2022-11-28T03:43:39;1.40;1.00
3701;DHT22;1866;48.374;10.766;2022-11-28T03:46:12;1.50;1.00
3701;DHT22;1866;48.374;10.766;2022-11-28T03:48:41;1.50;1.00
3701;DHT22;1866;48.374;10.766;2022-11-28T03:51:15;1.40;1.00
3701;DHT22;1866;48.374;10.766;2022-11-28T03:53:50;1.50;1.00
3701;DHT22;1866;48.374;10.766;2022-11-28T03:56:24;1.50;1.00
3701;DHT22;1866;48.374;10.766;2022-11-28T03:58:55;1.50;1.00
3701;DHT22;1866;48.374;10.766;2022-11-28T04:01:30;1.60;1.00
3701;DHT22;1866;48.374;10.766;2022-11-28T04:04:10;1.60;1.00
3701;DHT22;1866;48.374;10.766;2022-11-28T04:06:52;1.60;1.00
3701;DHT22;1866;48.374;10.766;2022-11-28T04:09:30;1.60;1.00
3701;DHT22;1866;48.374;10.766;2022-11-28T04:12:08;1.60;1.00
3701;DHT22;1866;48.374;10.766;2022-11-28T04:14:43;1.40;1.00
3701;DHT22;1866;48.374;10.766;2022-11-28T04:17:16;1.50;1.00
3701;DHT22;1866;48.374;10.766;2022-11-28T04:19:49;1.50;1.00
3701;DHT22;1866;48.374;10.766;2022-11-28T04:22:22;1.40;1.00
3701;DHT22;1866;48.374;10.766;2022-11-28T04:24:52;1.30;1.00
3701;DHT22;1866;48.374;10.766;2022-11-28T04:27:23;1.50;1.00
3701;DHT22;1866;48.374;10.766;2022-11-28T04:30:00;1.40;1.00
3701;DHT22;1866;48.374;10.766;2022-11-28T04:32:32;1.50;1.00
3701;DHT22;1866;48.374;10.766;2022-11-28T04:35:03;1.50;1.00
3701;DHT22;1866;48.374;10.766;2022-11-28T04:37:38;1.50;1.00
3701;DHT22;1866;48.374;10.766;2022-11-28T04:40:11;1.40;1.00
3701;DHT22;1866;48.374;10.766;2022-11-28T04:42:41;1.60;1.00
3701;DHT22;1866;48.374;10.766;2022-11-28T04:45:17;1.60;1.00
3701;DHT22;1866;48.374;10.766;2022-11-28T04:47:48;1.50;1.00
3701;DHT22;1866;48.374;10.766;2022-11-28T04:50:15;1.50;1.00
3701;DHT22;1866;48.374;10.766;2022-11-28T04:52:48;1.50;1.00
3701;DHT22;1866;48.374;10.766;2022-11-28T04:55:22;1.50;1.00
3701;DHT22;1866;48.374;10.766;2022-11-28T04:57:52;1.40;1.00
3701;DHT22;1866;48.374;10.766;2022-11-28T05:00:21;1.50;1.00
3701;DHT22;1866;48.374;10.766;2022-11-28T05:02:50;1.40;1.00
3701;DHT22;1866;48.374;10.766;2022-11-28T05:05:22;1.40;1.00
3701;DHT22;1866;48.374;10.766;2022-11-28T05:07:51;1.40;1.00
3701;DHT22;1866;48.374;10.766;2022-11-28T05:10:19;1.40;1.00
3701;DHT22;1866;48.374;10.766;2022-11-28T05:12:46;1.30;1.00
3701;DHT22;1866;48.374;10.766;2022-11-28T05:15:14;1.50;1.00
3701;DHT22;1866;48.374;10.766;2022-11-28T05:17:44;1.60;1.00
3701;DHT22;1866;48.374;10.766;2022-11-28T05:20:12;1.50;1.00
3701;DHT22;1866;48.374;10.766;2022-11-28T05:22:56;1.60;1.00
3701;DHT22;1866;48.374;10.766;2022-11-28T05:25:23;1.50;1.00
3701;DHT22;1866;48.374;10.766;2022-11-28T05:27:51;1.60;1.00
3701;DHT22;1866;48.374;10.766;2022-11-28T05:30:19;1.50;1.00
3701;DHT22;1866;48.374;10.766;2022-11-28T05:32:46;1.50;1.00
3701;DHT22;1866;48.374;10.766;2022-11-28T05:35:13;1.50;1.00
3701;DHT22;1866;48.374;10.766;2022-11-28T05:37:42;1.60;1.00
3701;DHT22;1866;48.374;10.766;2022-11-28T05:40:12;1.50;1.00
3701;DHT22;1866;48.374;10.766;2022-11-28T05:42:39;1.60;1.00
3701;DHT22;1866;48.374;10.766;2022-11-28T05:45:08;1.60;1.00
3701;DHT22;1866;48.374;10.766;2022-11-28T05:47:36;1.50;1.00
3701;DHT22;1866;48.374;10.766;2022-11-28T05:50:04;1.60;1.00
3701;DHT22;1866;48.374;10.766;2022-11-28T05:52:37;1.60;1.00
3701;DHT22;1866;48.374;10.766;2022-11-28T05:55:05;1.60;1.00
3701;DHT22;1866;48.374;10.766;2022-11-28T05:57:34;1.60;1.00
3701;DHT22;1866;48.374;10.766;2022-11-28T06:00:08;1.60;1.00
3701;DHT22;1866;48.374;10.766;2022-11-28T06:02:52;1.60;1.00
3701;DHT22;1866;48.374;10.766;2022-11-28T06:05:51;1.60;1.00
3701;DHT22;1866;48.374;10.766;2022-11-28T06:08:26;1.70;1.00
3701;DHT22;1866;48.374;10.766;2022-11-28T06:10:55;1.70;1.00
3701;DHT22;1866;48.374;10.766;2022-11-28T06:13:26;1.60;1.00
3701;DHT22;1866;48.374;10.766;2022-11-28T06:15:59;1.60;1.00
3701;DHT22;1866;48.374;10.766;2022-11-28T06:18:28;1.60;1.00
3701;DHT22;1866;48.374;10.766;2022-11-28T06:20:59;1.60;1.00
3701;DHT22;1866;48.374;10.766;2022-11-28T06:23:27;1.60;1.00
3701;DHT22;1866;48.374;10.766;2022-11-28T06:25:55;1.60;1.00
3701;DHT22;1866;48.374;10.766;2022-11-28T06:28:22;1.60;1.00
3701;DHT22;1866;48.374;10.766;2022-11-28T06:30:55;1.60;1.00
3701;DHT22;1866;48.374;10.766;2022-11-28T06:33:22;1.70;1.00
3701;DHT22;1866;48.374;10.766;2022-11-28T06:35:51;1.60;1.00
3701;DHT22;1866;48.374;10.766;2022-11-28T06:38:18;1.60;1.00
3701;DHT22;1866;48.374;10.766;2022-11-28T06:40:45;1.70;1.00
3701;DHT22;1866;48.374;10.766;2022-11-28T06:43:12;1.70;1.00
3701;DHT22;1866;48.374;10.766;2022-11-28T06:45:39;1.60;1.00
3701;DHT22;1866;48.374;10.766;2022-11-28T06:48:08;1.60;1.00
3701;DHT22;1866;48.374;10.766;2022-11-28T06:50:36;1.60;1.00
3701;DHT22;1866;48.374;10.766;2022-11-28T06:53:03;1.60;1.00
3701;DHT22;1866;48.374;10.766;2022-11-28T06:55:31;1.50;1.00
3701;DHT22;1866;48.374;10.766;2022-11-28T06:57:59;1.60;1.00
3701;DHT22;1866;48.374;10.766;2022-11-28T07:00:38;1.50;1.00
3701;DHT22;1866;48.374;10.766;2022-11-28T07:03:05;1.50;1.00
3701;DHT22;1866;48.374;10.766;2022-11-28T07:05:33;1.60;1.00
3701;DHT22;1866;48.374;10.766;2022-11-28T07:08:01;1.60;1.00
3701;DHT22;1866;48.374;10.766;2022-11-28T07:10:29;1.60;1.00
3701;DHT22;1866;48.374;10.766;2022-11-28T07:12:57;1.60;1.00
3701;DHT22;1866;48.374;10.766;2022-11-28T07:15:26;1.60;1.00
3701;DHT22;1866;48.374;10.766;2022-11-28T07:17:54;1.70;1.00
3701;DHT22;1866;48.374;10.766;2022-11-28T07:20:22;1.70;1.00
3701;DHT22;1866;48.374;10.766;2022-11-28T07:22:50;1.70;1.00
3701;DHT22;1866;48.374;10.766;2022-11-28T07:25:17;1.70;1.00
3701;DHT22;1866;48.374;10.766;2022-11-28T07:27:48;1.60;1.00
3701;DHT22;1866;48.374;10.766;2022-11-28T07:30:18;1.60;1.00
3701;DHT22;1866;48.374;10.766;2022-11-28T07:32:48;1.60;1.00
3701;DHT22;1866;48.374;10.766;2022-11-28T07:35:15;1.70;1.00
3701;DHT22;1866;48.374;10.766;2022-11-28T07:37:44;1.70;1.00
3701;DHT22;1866;48.374;10.766;2022-11-28T07:40:13;1.70;1.00
3701;DHT22;1866;48.374;10.766;2022-11-28T07:42:50;1.80;1.00
3701;DHT22;1866;48.374;10.766;2022-11-28T07:45:19;1.90;1.00
3701;DHT22;1866;48.374;10.766;2022-11-28T07:47:45;1.90;1.00
3701;DHT22;1866;48.374;10.766;2022-11-28T07:50:12;1.80;1.00
3701;DHT22;1866;48.374;10.766;2022-11-28T07:52:41;1.90;1.00
3701;DHT22;1866;48.374;10.766;2022-11-28T07:55:15;1.90;1.00
3701;DHT22;1866;48.374;10.766;2022-11-28T07:57:42;1.90;1.00
3701;DHT22;1866;48.374;10.766;2022-11-28T08:00:11;1.90;1.00
3701;DHT22;1866;48.374;10.766;2022-11-28T08:02:40;1.80;1.00
3701;DHT22;1866;48.374;10.766;2022-11-28T08:05:11;1.90;1.00
3701;DHT22;1866;48.374;10.766;2022-11-28T08:07:39;1.80;1.00
3701;DHT22;1866;48.374;10.766;2022-11-28T08:10:07;1.90;1.00
3701;DHT22;1866;48.374;10.766;2022-11-28T08:12:37;1.90;1.00
3701;DHT22;1866;48.374;10.766;2022-11-28T08:15:07;2.00;1.00
3701;DHT22;1866;48.374;10.766;2022-11-28T08:17:38;2.00;1.00
3701;DHT22;1866;48.374;10.766;2022-11-28T08:20:07;2.00;1.00
3701;DHT22;1866;48.374;10.766;2022-11-28T08:22:34;2.10;1.00
3701;DHT22;1866;48.374;10.766;2022-11-28T08:25:01;2.10;1.00
3701;DHT22;1866;48.374;10.766;2022-11-28T08:27:31;2.10;1.00
3701;DHT22;1866;48.374;10.766;2022-11-28T08:30:00;2.10;1.00
3701;DHT22;1866;48.374;10.766;2022-11-28T08:32:28;2.10;1.00
3701;DHT22;1866;48.374;10.766;2022-11-28T08:34:56;2.10;1.00
3701;DHT22;1866;48.374;10.766;2022-11-28T08:37:23;2.10;1.00
3701;DHT22;1866;48.374;10.766;2022-11-28T08:39:52;2.10;1.00
3701;DHT22;1866;48.374;10.766;2022-11-28T08:42:19;2.10;1.00
3701;DHT22;1866;48.374;10.766;2022-11-28T08:44:47;2.20;99.90
3701;DHT22;1866;48.374;10.766;2022-11-28T08:47:16;2.30;99.90
3701;DHT22;1866;48.374;10.766;2022-11-28T08:49:44;2.40;99.90
3701;DHT22;1866;48.374;10.766;2022-11-28T08:52:18;2.40;99.90
3701;DHT22;1866;48.374;10.766;2022-11-28T08:54:46;2.30;99.90
3701;DHT22;1866;48.374;10.766;2022-11-28T08:57:14;2.30;99.90
3701;DHT22;1866;48.374;10.766;2022-11-28T08:59:41;2.40;99.90
3701;DHT22;1866;48.374;10.766;2022-11-28T09:02:10;2.50;99.90
3701;DHT22;1866;48.374;10.766;2022-11-28T09:04:39;2.60;99.90
3701;DHT22;1866;48.374;10.766;2022-11-28T09:07:07;2.50;99.90
3701;DHT22;1866;48.374;10.766;2022-11-28T09:09:38;2.60;99.90
3701;DHT22;1866;48.374;10.766;2022-11-28T09:12:06;2.70;99.90
3701;DHT22;1866;48.374;10.766;2022-11-28T09:14:34;2.70;99.90
3701;DHT22;1866;48.374;10.766;2022-11-28T09:17:08;2.70;99.90
3701;DHT22;1866;48.374;10.766;2022-11-28T09:19:36;2.70;99.90
3701;DHT22;1866;48.374;10.766;2022-11-28T09:22:06;2.80;99.90
3701;DHT22;1866;48.374;10.766;2022-11-28T09:24:33;2.90;99.90
3701;DHT22;1866;48.374;10.766;2022-11-28T09:27:01;3.00;99.90
3701;DHT22;1866;48.374;10.766;2022-11-28T09:29:29;3.10;99.90
3701;DHT22;1866;48.374;10.766;2022-11-28T09:31:56;3.10;99.90
3701;DHT22;1866;48.374;10.766;2022-11-28T09:34:23;3.00;99.90
3701;DHT22;1866;48.374;10.766;2022-11-28T09:36:50;3.10;99.90
3701;DHT22;1866;48.374;10.766;2022-11-28T09:39:19;3.00;99.90
3701;DHT22;1866;48.374;10.766;2022-11-28T09:42:00;3.10;99.90
3701;DHT22;1866;48.374;10.766;2022-11-28T09:44:42;3.20;99.90
3701;DHT22;1866;48.374;10.766;2022-11-28T09:47:17;3.20;99.90
3701;DHT22;1866;48.374;10.766;2022-11-28T09:50:00;3.30;99.90
3701;DHT22;1866;48.374;10.766;2022-11-28T09:52:35;3.30;99.90
3701;DHT22;1866;48.374;10.766;2022-11-28T09:55:17;3.30;99.90
3701;DHT22;1866;48.374;10.766;2022-11-28T09:57:46;3.30;99.90
3701;DHT22;1866;48.374;10.766;2022-11-28T10:00:16;3.40;99.90
3701;DHT22;1866;48.374;10.766;2022-11-28T10:03:01;3.40;99.90
3701;DHT22;1866;48.374;10.766;2022-11-28T10:05:37;3.30;99.90
3701;DHT22;1866;48.374;10.766;2022-11-28T10:08:20;3.50;99.90
3701;DHT22;1866;48.374;10.766;2022-11-28T10:10:57;3.50;99.90
3701;DHT22;1866;48.374;10.766;2022-11-28T10:13:33;3.60;99.90
3701;DHT22;1866;48.374;10.766;2022-11-28T10:16:08;3.60;99.90
3701;DHT22;1866;48.374;10.766;2022-11-28T10:18:42;3.60;99.90
3701;DHT22;1866;48.374;10.766;2022-11-28T10:21:20;3.70;99.90
3701;DHT22;1866;48.374;10.766;2022-11-28T10:23:50;3.70;99.40
3701;DHT22;1866;48.374;10.766;2022-11-28T10:26:29;3.70;88.90
3701;DHT22;1866;48.374;10.766;2022-11-28T10:29:04;3.60;80.80
3701;DHT22;1866;48.374;10.766;2022-11-28T10:31:41;3.60;71.40
3701;DHT22;1866;48.374;10.766;2022-11-28T10:34:13;3.70;63.90
3701;DHT22;1866;48.374;10.766;2022-11-28T10:36:58;3.80;66.20
3701;DHT22;1866;48.374;10.766;2022-11-28T10:39:26;3.80;71.60
3701;DHT22;1866;48.374;10.766;2022-11-28T10:42:00;3.90;67.60
3701;DHT22;1866;48.374;10.766;2022-11-28T10:45:11;3.80;59.80
3701;DHT22;1866;48.374;10.766;2022-11-28T10:48:07;3.80;58.70
3701;DHT22;1866;48.374;10.766;2022-11-28T10:51:00;3.90;60.90
3701;DHT22;1866;48.374;10.766;2022-11-28T10:53:40;4.00;42.20
3701;DHT22;1866;48.374;10.766;2022-11-28T10:56:17;4.10;56.90
3701;DHT22;1866;48.374;10.766;2022-11-28T10:58:55;4.10;19.50
3701;DHT22;1866;48.374;10.766;2022-11-28T11:01:27;4.20;23.20
3701;DHT22;1866;48.374;10.766;2022-11-28T11:03:55;4.30;33.70
3701;DHT22;1866;48.374;10.766;2022-11-28T11:06:24;4.40;28.40
3701;DHT22;1866;48.374;10.766;2022-11-28T11:08:52;4.30;21.20
3701;DHT22;1866;48.374;10.766;2022-11-28T11:11:24;4.40;17.00
3701;DHT22;1866;48.374;10.766;2022-11-28T11:13:59;4.40;7.70
3701;DHT22;1866;48.374;10.766;2022-11-28T11:16:46;4.50;2.60
3701;DHT22;1866;48.374;10.766;2022-11-28T11:19:33;4.60;9.50
3701;DHT22;1866;48.374;10.766;2022-11-28T11:22:18;4.70;1.00
3701;DHT22;1866;48.374;10.766;2022-11-28T11:25:04;4.70;1.00
3701;DHT22;1866;48.374;10.766;2022-11-28T11:27:34;4.70;1.00
3701;DHT22;1866;48.374;10.766;2022-11-28T11:30:17;4.60;1.00
3701;DHT22;1866;48.374;10.766;2022-11-28T11:32:48;4.60;1.00
3701;DHT22;1866;48.374;10.766;2022-11-28T11:35:20;4.70;1.00
3701;DHT22;1866;48.374;10.766;2022-11-28T11:37:49;4.80;1.00
3701;DHT22;1866;48.374;10.766;2022-11-28T11:40:21;4.80;3.40
3701;DHT22;1866;48.374;10.766;2022-11-28T11:42:53;4.80;1.00
3701;DHT22;1866;48.374;10.766;2022-11-28T11:45:31;4.90;1.60
3701;DHT22;1866;48.374;10.766;2022-11-28T11:48:00;4.90;12.60
3701;DHT22;1866;48.374;10.766;2022-11-28T11:50:30;4.80;14.80
3701;DHT22;1866;48.374;10.766;2022-11-28T11:53:03;4.90;17.60
3701;DHT22;1866;48.374;10.766;2022-11-28T11:55:37;4.80;13.10
3701;DHT22;1866;48.374;10.766;2022-11-28T11:58:06;4.80;16.60
3701;DHT22;1866;48.374;10.766;2022-11-28T12:00:39;4.80;25.10
3701;DHT22;1866;48.374;10.766;2022-11-28T12:03:14;4.80;33.00
3701;DHT22;1866;48.374;10.766;2022-11-28T12:05:48;4.70;28.80
3701;DHT22;1866;48.374;10.766;2022-11-28T12:08:23;4.70;22.00
3701;DHT22;1866;48.374;10.766;2022-11-28T12:11:04;4.80;27.10
3701;DHT22;1866;48.374;10.766;2022-11-28T12:13:33;4.80;28.10
3701;DHT22;1866;48.374;10.766;2022-11-28T12:16:07;4.70;23.50
3701;DHT22;1866;48.374;10.766;2022-11-28T12:18:47;4.80;22.30
3701;DHT22;1866;48.374;10.766;2022-11-28T12:21:22;4.80;29.00
3701;DHT22;1866;48.374;10.766;2022-11-28T12:24:12;4.80;18.10
3701;DHT22;1866;48.374;10.766;2022-11-28T12:26:44;4.80;8.70
3701;DHT22;1866;48.374;10.766;2022-11-28T12:29:26;4.80;10.20
3701;DHT22;1866;48.374;10.766;2022-11-28T12:32:08;4.90;13.60
3701;DHT22;1866;48.374;10.766;2022-11-28T12:34:49;5.00;13.20
3701;DHT22;1866;48.374;10.766;2022-11-28T12:37:28;5.00;9.10
3701;DHT22;1866;48.374;10.766;2022-11-28T12:40:02;5.00;1.90
3701;DHT22;1866;48.374;10.766;2022-11-28T12:42:43;5.00;1.00
3701;DHT22;1866;48.374;10.766;2022-11-28T12:45:31;5.00;1.00
3701;DHT22;1866;48.374;10.766;2022-11-28T12:48:13;5.00;1.00
3701;DHT22;1866;48.374;10.766;2022-11-28T12:50:46;5.00;1.00
3701;DHT22;1866;48.374;10.766;2022-11-28T12:53:42;5.00;1.00
3701;DHT22;1866;48.374;10.766;2022-11-28T12:56:27;5.00;1.00
3701;DHT22;1866;48.374;10.766;2022-11-28T12:59:01;5.00;1.00
3701;DHT22;1866;48.374;10.766;2022-11-28T13:01:40;5.10;1.00
3701;DHT22;1866;48.374;10.766;2022-11-28T13:04:31;5.10;1.00
3701;DHT22;1866;48.374;10.766;2022-11-28T13:07:11;5.00;1.00
3701;DHT22;1866;48.374;10.766;2022-11-28T13:09:54;5.10;1.00
3701;DHT22;1866;48.374;10.766;2022-11-28T13:12:28;5.10;1.00
3701;DHT22;1866;48.374;10.766;2022-11-28T13:15:01;5.10;1.00
3701;DHT22;1866;48.374;10.766;2022-11-28T13:17:37;5.10;1.00
3701;DHT22;1866;48.374;10.766;2022-11-28T13:20:16;5.10;1.00
3701;DHT22;1866;48.374;10.766;2022-11-28T13:22:54;5.20;1.00
3701;DHT22;1866;48.374;10.766;2022-11-28T13:25:27;5.20;1.00
3701;DHT22;1866;48.374;10.766;2022-11-28T13:28:08;5.20;1.00
3701;DHT22;1866;48.374;10.766;2022-11-28T13:30:42;5.20;1.00
3701;DHT22;1866;48.374;10.766;2022-11-28T13:33:26;5.20;1.00
3701;DHT22;1866;48.374;10.766;2022-11-28T13:35:56;5.20;1.00
3701;DHT22;1866;48.374;10.766;2022-11-28T13:38:29;5.20;1.00
3701;DHT22;1866;48.374;10.766;2022-11-28T13:41:02;5.20;1.00
3701;DHT22;1866;48.374;10.766;2022-11-28T13:43:37;5.20;1.00
3701;DHT22;1866;48.374;10.766;2022-11-28T13:46:07;5.30;1.00
3701;DHT22;1866;48.374;10.766;2022-11-28T13:48:57;5.30;1.00
3701;DHT22;1866;48.374;10.766;2022-11-28T13:51:28;5.30;7.40
3701;DHT22;1866;48.374;10.766;2022-11-28T13:57:21;5.30;20.10
3701;DHT22;1866;48.374;10.766;2022-11-28T13:59:55;5.30;24.40
3701;DHT22;1866;48.374;10.766;2022-11-28T14:02:34;5.30;29.20
3701;DHT22;1866;48.374;10.766;2022-11-28T14:05:04;5.30;43.20
3701;DHT22;1866;48.374;10.766;2022-11-28T14:07:34;5.30;53.80
3701;DHT22;1866;48.374;10.766;2022-11-28T14:10:14;5.20;68.40
3701;DHT22;1866;48.374;10.766;2022-11-28T14:12:56;5.20;87.30
3701;DHT22;1866;48.374;10.766;2022-11-28T14:15:30;5.20;98.50
3701;DHT22;1866;48.374;10.766;2022-11-28T14:18:19;5.20;99.90
3701;DHT22;1866;48.374;10.766;2022-11-28T14:20:55;5.20;99.90
3701;DHT22;1866;48.374;10.766;2022-11-28T14:23:42;5.20;99.90
3701;DHT22;1866;48.374;10.766;2022-11-28T14:26:24;5.20;99.90
3701;DHT22;1866;48.374;10.766;2022-11-28T14:28:52;5.10;99.90
3701;DHT22;1866;48.374;10.766;2022-11-28T14:31:24;5.10;99.90
3701;DHT22;1866;48.374;10.766;2022-11-28T14:33:57;5.10;99.90
3701;DHT22;1866;48.374;10.766;2022-11-28T14:36:26;5.10;99.90
3701;DHT22;1866;48.374;10.766;2022-11-28T14:39:33;5.10;99.90
3701;DHT22;1866;48.374;10.766;2022-11-28T14:42:20;5.00;99.90
3701;DHT22;1866;48.374;10.766;2022-11-28T14:44:49;5.00;99.90
3701;DHT22;1866;48.374;10.766;2022-11-28T14:47:27;5.00;99.90
3701;DHT22;1866;48.374;10.766;2022-11-28T14:56:21;5.00;99.90
3701;DHT22;1866;48.374;10.766;2022-11-28T14:58:51;5.00;99.90
3701;DHT22;1866;48.374;10.766;2022-11-28T15:01:29;5.10;99.90
3701;DHT22;1866;48.374;10.766;2022-11-28T15:04:06;5.00;99.90
3701;DHT22;1866;48.374;10.766;2022-11-28T15:06:39;4.90;99.90
3701;DHT22;1866;48.374;10.766;2022-11-28T15:09:14;4.90;99.90
3701;DHT22;1866;48.374;10.766;2022-11-28T15:11:59;4.90;99.90
3701;DHT22;1866;48.374;10.766;2022-11-28T15:14:31;5.00;99.90
3701;DHT22;1866;48.374;10.766;2022-11-28T15:17:02;4.90;99.90
3701;DHT22;1866;48.374;10.766;2022-11-28T15:19:33;4.80;99.90
3701;DHT22;1866;48.374;10.766;2022-11-28T15:22:04;4.80;99.90
3701;DHT22;1866;48.374;10.766;2022-11-28T15:24:33;4.80;99.90
3701;DHT22;1866;48.374;10.766;2022-11-28T15:30:16;4.70;99.90
3701;DHT22;1866;48.374;10.766;2022-11-28T15:32:43;4.90;99.90
3701;DHT22;1866;48.374;10.766;2022-11-28T15:35:13;4.80;99.90
3701;DHT22;1866;48.374;10.766;2022-11-28T15:37:47;4.70;99.90
3701;DHT22;1866;48.374;10.766;2022-11-28T15:40:19;4.70;99.90
3701;DHT22;1866;48.374;10.766;2022-11-28T15:42:48;4.60;99.90
3701;DHT22;1866;48.374;10.766;2022-11-28T15:45:22;4.80;99.90
3701;DHT22;1866;48.374;10.766;2022-11-28T15:47:50;4.90;99.90
3701;DHT22;1866;48.374;10.766;2022-11-28T15:50:18;4.70;99.90
3701;DHT22;1866;48.374;10.766;2022-11-28T15:52:53;4.60;99.90
3701;DHT22;1866;48.374;10.766;2022-11-28T15:55:20;4.60;99.90
3701;DHT22;1866;48.374;10.766;2022-11-28T15:57:47;4.80;99.90
3701;DHT22;1866;48.374;10.766;2022-11-28T16:00:15;4.70;99.90
3701;DHT22;1866;48.374;10.766;2022-11-28T16:02:45;4.70;99.90
3701;DHT22;1866;48.374;10.766;2022-11-28T16:05:14;4.70;99.90
3701;DHT22;1866;48.374;10.766;2022-11-28T16:07:45;4.70;99.90
3701;DHT22;1866;48.374;10.766;2022-11-28T16:10:20;4.60;99.90
3701;DHT22;1866;48.374;10.766;2022-11-28T16:12:48;4.70;99.90
3701;DHT22;1866;48.374;10.766;2022-11-28T16:15:17;4.60;99.90
3701;DHT22;1866;48.374;10.766;2022-11-28T16:17:45;4.60;99.90
3701;DHT22;1866;48.374;10.766;2022-11-28T16:20:21;4.60;99.90
3701;DHT22;1866;48.374;10.766;2022-11-28T16:22:48;4.60;99.90
3701;DHT22;1866;48.374;10.766;2022-11-28T16:25:20;4.50;99.90
3701;DHT22;1866;48.374;10.766;2022-11-28T16:27:47;4.50;99.90
3701;DHT22;1866;48.374;10.766;2022-11-28T16:30:32;4.60;99.90
3701;DHT22;1866;48.374;10.766;2022-11-28T16:33:32;4.50;99.90
3701;DHT22;1866;48.374;10.766;2022-11-28T16:35:50;4.40;99.90
3701;DHT22;1866;48.374;10.766;2022-11-28T16:38:20;4.40;99.90
3701;DHT22;1866;48.374;10.766;2022-11-28T16:40:48;4.50;99.90
3701;DHT22;1866;48.374;10.766;2022-11-28T16:43:19;4.50;99.90
3701;DHT22;1866;48.374;10.766;2022-11-28T16:45:56;4.50;99.90
3701;DHT22;1866;48.374;10.766;2022-11-28T16:48:26;4.60;99.90
3701;DHT22;1866;48.374;10.766;2022-11-28T16:51:34;4.60;99.90
3701;DHT22;1866;48.374;10.766;2022-11-28T16:54:27;4.40;99.90
3701;DHT22;1866;48.374;10.766;2022-11-28T16:59:39;4.40;99.90
3701;DHT22;1866;48.374;10.766;2022-11-28T17:02:17;4.40;99.90
3701;DHT22;1866;48.374;10.766;2022-11-28T17:04:47;4.40;99.90
3701;DHT22;1866;48.374;10.766;2022-11-28T17:07:16;4.40;99.90